Ben-my-chree — MXLG6 — position and weather

sailwx.info

Track history (hours):
 
Tides and Currents Weather Stations Pressure Air Temp Water Temp Dewpoint Dewpoint Depression Visibility Wind Speed Wind Dir Waves Ship Positions

Ben-my-chree

Operator: The Isle of Man Steam Packet Co Ltd

Last reported at 2020-Apr-02 02:26 UTC. Time now 2020-Apr-02 03:56 UTC.
Position N 53°59' W 003°42'.

Length 125 m; draft 5 m.

Type: Ship. MMSI: 234983000.

Date/timePositionNaut miles runAvg speedWind from/ knotsBaromVisibWave heightAir tempDewpointWater temp
2020-Apr-02 02:26N 53°59' W 003°42'716.2
2020-Apr-02 02:00N 53°56' W 003°31'22 6.3
2020-Apr-01 22:29N 54°02' W 002°55'1010.0
2020-Apr-01 21:30N 53°56' W 003°08'815.1
2020-Apr-01 21:00N 53°55' W 003°21'9 0.8
2020-Apr-01 10:30N 53°57' W 003°06'7 0.6
2020-Mar-31 22:00N 54°01' W 002°57'1313.3
2020-Mar-31 21:01N 53°55' W 003°17'714.7
2020-Mar-31 20:30N 53°56' W 003°29'21 2.3
2020-Mar-31 11:30N 54°02' W 002°55'8 5.4
2020-Mar-31 10:00N 53°57' W 003°06'917.1
2020-Mar-31 09:30N 53°55' W 003°20'1717.1
2020-Mar-31 08:30N 53°60' W 003°48'23 3.1
2020-Mar-31 01:00N 53°56' W 003°09'10 6.5
2020-Mar-30 23:25N 54°02' W 002°55'13 6.9
2020-Mar-30 21:30N 53°56' W 003°14'713.1
2020-Mar-30 21:00N 53°56' W 003°26'2 0.3
2020-Mar-30 14:30N 53°56' W 003°28'916.9
2020-Mar-30 13:58N 53°56' W 003°13'1 0.3
2020-Mar-30 10:30N 53°56' W 003°11'6 0.7
2020-Mar-30 02:01N 53°55' W 003°21'816.4
2020-Mar-30 01:30N 53°56' W 003°08'9 3.0
2020-Mar-29 22:25N 54°02' W 002°55'1112.2
2020-Mar-29 21:30N 53°56' W 003°11'1817.4
2020-Mar-29 20:29N 53°58' W 003°40'4 0.7
2020-Mar-29 14:31N 53°57' W 003°34'1716.9
2020-Mar-29 13:31N 53°57' W 003°05'7 3.2
2020-Mar-29 11:10N 54°02' W 002°55'21 1.0
2020-Mar-28 15:12N 53°56' W 003°28'20 6.4
2020-Mar-28 12:01N 54°02' W 002°55'0 8.6
2020-Mar-28 12:00N 54°02' W 002°55'918.6
2020-Mar-28 11:30N 53°56' W 003°08'3 0.3
2020-Mar-28 02:44N 53°56' W 003°12'419.3
2020-Mar-28 02:30N 53°57' W 003°05'815.8
2020-Mar-28 02:00N 54°02' W 002°55'10 3.0
2020-Mar-27 22:30N 53°56' W 003°09'1817.6
2020-Mar-27 21:30N 53°58' W 003°39'14 2.7
2020-Mar-27 16:20N 54°03' W 004°01'1518.2
2020-Mar-27 15:31N 53°58' W 003°38'917.9
2020-Mar-27 15:01N 53°56' W 003°23'17 5.4
2020-Mar-27 11:48N 54°02' W 002°56'2318.1
2020-Mar-27 10:30N 53°57' W 003°34'918.5
2020-Mar-27 10:00N 54°00' W 003°49'2511.2
2020-Mar-27 07:49N 54°09' W 004°28'33 7.7
2020-Mar-27 03:30N 53°57' W 003°35'3 0.5
2020-Mar-26 21:30N 53°58' W 003°40'1118.2
2020-Mar-26 20:53N 54°02' W 003°58'27 4.5
2020-Mar-26 14:51N 53°56' W 003°13'12 7.2
2020-Mar-26 13:09N 54°02' W 002°55'17 7.9
2020-Mar-26 11:00N 53°55' W 003°21'1818.3
2020-Mar-26 10:00N 54°01' W 003°51'918.6
2020-Mar-26 09:31N 54°04' W 004°05'6 1.1
2020-Mar-26 04:17N 54°01' W 003°57'1618.3
2020-Mar-26 03:26N 53°56' W 003°33'23 5.2
2020-Mar-25 22:59N 54°02' W 002°55'21 2.8
2020-Mar-25 15:30N 53°55' W 003°29'8 1.6
2020-Mar-25 10:15N 53°59' W 003°42'24 4.6
2020-Mar-25 05:02N 54°08' W 004°20'5014.0
2020-Mar-25 01:26N 54°02' W 002°55'0 0.1
2020-Mar-24 23:00N 54°02' W 002°55'2315.5
2020-Mar-24 21:30N 53°57' W 003°34'32 7.3
2020-Mar-24 17:09N 54°09' W 004°24'3518.2
2020-Mar-24 15:15N 53°56' W 003°29'13 2.5
2020-Mar-24 10:01N 53°60' W 003°51'8 1.4
2020-Mar-24 04:30N 54°03' W 004°03'4011.8
2020-Mar-24 01:07N 54°02' W 002°55'0 0.0
2020-Mar-24 00:28N 54°02' W 002°55'0 0.0
2020-Mar-23 23:28N 54°02' W 002°55'3313.1
2020-Mar-23 20:57N 54°01' W 003°51'33 4.2
2020-Mar-23 13:05N 54°02' W 002°55'0 0.0
2020-Mar-23 12:59N 54°02' W 002°55'12 8.2
2020-Mar-23 11:30N 53°56' W 003°12'816.7
2020-Mar-23 11:00N 53°56' W 003°27'2916.9
2020-Mar-23 09:17N 54°06' W 004°13'41 6.0
2020-Mar-23 02:30N 53°57' W 003°05'  
Track history (hours):
 
Tides and Currents Weather Stations Pressure Air Temp Water Temp Dewpoint Dewpoint Depression Visibility Wind Speed Wind Dir Waves Ship Positions

Ben-my-chree

Operator: The Isle of Man Steam Packet Co Ltd

Last reported at 2020-Apr-02 02:26 UTC. Time now 2020-Apr-02 03:56 UTC.
Position N 53°59' W 003°42'.

Length 125 m; draft 5 m.

Type: Ship. MMSI: 234983000.

Date/timePositionNaut miles runAvg speedWind from/ knotsBaromVisibWave heightAir tempDewpointWater temp
2020-Apr-02 02:26N 53°59' W 003°42'716.2
2020-Apr-02 02:00N 53°56' W 003°31'22 6.3
2020-Apr-01 22:29N 54°02' W 002°55'1010.0
2020-Apr-01 21:30N 53°56' W 003°08'815.1
2020-Apr-01 21:00N 53°55' W 003°21'9 0.8
2020-Apr-01 10:30N 53°57' W 003°06'7 0.6
2020-Mar-31 22:00N 54°01' W 002°57'1313.3
2020-Mar-31 21:01N 53°55' W 003°17'714.7
2020-Mar-31 20:30N 53°56' W 003°29'21 2.3
2020-Mar-31 11:30N 54°02' W 002°55'8 5.4
2020-Mar-31 10:00N 53°57' W 003°06'917.1
2020-Mar-31 09:30N 53°55' W 003°20'1717.1
2020-Mar-31 08:30N 53°60' W 003°48'23 3.1
2020-Mar-31 01:00N 53°56' W 003°09'10 6.5
2020-Mar-30 23:25N 54°02' W 002°55'13 6.9
2020-Mar-30 21:30N 53°56' W 003°14'713.1
2020-Mar-30 21:00N 53°56' W 003°26'2 0.3
2020-Mar-30 14:30N 53°56' W 003°28'916.9
2020-Mar-30 13:58N 53°56' W 003°13'1 0.3
2020-Mar-30 10:30N 53°56' W 003°11'6 0.7
2020-Mar-30 02:01N 53°55' W 003°21'816.4
2020-Mar-30 01:30N 53°56' W 003°08'9 3.0
2020-Mar-29 22:25N 54°02' W 002°55'1112.2
2020-Mar-29 21:30N 53°56' W 003°11'1817.4
2020-Mar-29 20:29N 53°58' W 003°40'4 0.7
2020-Mar-29 14:31N 53°57' W 003°34'1716.9
2020-Mar-29 13:31N 53°57' W 003°05'7 3.2
2020-Mar-29 11:10N 54°02' W 002°55'21 1.0
2020-Mar-28 15:12N 53°56' W 003°28'20 6.4
2020-Mar-28 12:01N 54°02' W 002°55'0 8.6
2020-Mar-28 12:00N 54°02' W 002°55'918.6
2020-Mar-28 11:30N 53°56' W 003°08'3 0.3
2020-Mar-28 02:44N 53°56' W 003°12'419.3
2020-Mar-28 02:30N 53°57' W 003°05'815.8
2020-Mar-28 02:00N 54°02' W 002°55'10 3.0
2020-Mar-27 22:30N 53°56' W 003°09'1817.6
2020-Mar-27 21:30N 53°58' W 003°39'14 2.7
2020-Mar-27 16:20N 54°03' W 004°01'1518.2
2020-Mar-27 15:31N 53°58' W 003°38'917.9
2020-Mar-27 15:01N 53°56' W 003°23'17 5.4
2020-Mar-27 11:48N 54°02' W 002°56'2318.1
2020-Mar-27 10:30N 53°57' W 003°34'918.5
2020-Mar-27 10:00N 54°00' W 003°49'2511.2
2020-Mar-27 07:49N 54°09' W 004°28'33 7.7
2020-Mar-27 03:30N 53°57' W 003°35'3 0.5
2020-Mar-26 21:30N 53°58' W 003°40'1118.2
2020-Mar-26 20:53N 54°02' W 003°58'27 4.5
2020-Mar-26 14:51N 53°56' W 003°13'12 7.2
2020-Mar-26 13:09N 54°02' W 002°55'17 7.9
2020-Mar-26 11:00N 53°55' W 003°21'1818.3
2020-Mar-26 10:00N 54°01' W 003°51'918.6
2020-Mar-26 09:31N 54°04' W 004°05'6 1.1
2020-Mar-26 04:17N 54°01' W 003°57'1618.3
2020-Mar-26 03:26N 53°56' W 003°33'23 5.2
2020-Mar-25 22:59N 54°02' W 002°55'21 2.8
2020-Mar-25 15:30N 53°55' W 003°29'8 1.6
2020-Mar-25 10:15N 53°59' W 003°42'24 4.6
2020-Mar-25 05:02N 54°08' W 004°20'5014.0
2020-Mar-25 01:26N 54°02' W 002°55'0 0.1
2020-Mar-24 23:00N 54°02' W 002°55'2315.5
2020-Mar-24 21:30N 53°57' W 003°34'32 7.3
2020-Mar-24 17:09N 54°09' W 004°24'3518.2
2020-Mar-24 15:15N 53°56' W 003°29'13 2.5
2020-Mar-24 10:01N 53°60' W 003°51'8 1.4
2020-Mar-24 04:30N 54°03' W 004°03'4011.8
2020-Mar-24 01:07N 54°02' W 002°55'0 0.0
2020-Mar-24 00:28N 54°02' W 002°55'0 0.0
2020-Mar-23 23:28N 54°02' W 002°55'3313.1
2020-Mar-23 20:57N 54°01' W 003°51'33 4.2
2020-Mar-23 13:05N 54°02' W 002°55'0 0.0
2020-Mar-23 12:59N 54°02' W 002°55'12 8.2
2020-Mar-23 11:30N 53°56' W 003°12'816.7
2020-Mar-23 11:00N 53°56' W 003°27'2916.9
2020-Mar-23 09:17N 54°06' W 004°13'41 6.0
2020-Mar-23 02:30N 53°57' W 003°05'  

Dump ship's entire track history